createdAt,value
2018-05-10T04:04:45.745Z,986.4
2018-05-10T04:05:05.888Z,986.4
2018-05-10T04:05:26.056Z,986.5
2018-05-10T04:05:46.216Z,986.4
2018-05-10T04:06:06.657Z,986.5
2018-05-10T04:06:26.742Z,986.5
2018-05-10T04:06:46.939Z,986.5
2018-05-10T04:07:07.142Z,986.5
2018-05-10T04:07:27.299Z,986.5
2018-05-10T04:07:47.471Z,986.5
2018-05-10T04:08:07.617Z,986.5
2018-05-10T04:08:27.811Z,986.5
2018-05-10T04:08:47.979Z,986.5
2018-05-10T04:09:08.172Z,986.5
2018-05-10T04:09:28.369Z,986.5
2018-05-10T04:09:48.556Z,986.5
2018-05-10T04:17:58.234Z,986.5
2018-05-10T04:18:18.418Z,986.5
2018-05-10T04:18:38.600Z,986.5
2018-05-10T04:18:58.787Z,986.5
2018-05-10T04:19:18.949Z,986.5
2018-05-10T04:22:25.429Z,986.5
2018-05-10T04:22:45.662Z,986.4
2018-05-10T04:25:31.190Z,986.5
2018-05-10T04:25:51.429Z,986.4
2018-05-10T04:26:11.586Z,986.4
2018-05-10T04:26:31.759Z,986.4
2018-05-10T04:30:20.503Z,986.5
2018-05-10T04:30:40.671Z,986.5
2018-05-10T04:31:00.877Z,986.5
2018-05-10T04:33:01.808Z,986.5
2018-05-10T04:33:21.990Z,986.5
2018-05-10T04:33:42.165Z,986.5
2018-05-10T04:35:05.368Z,986.5
2018-05-10T04:35:25.514Z,986.5
2018-05-10T04:37:33.988Z,986.6
2018-05-10T04:37:54.153Z,986.5
2018-05-10T04:38:14.312Z,986.5
2018-05-10T04:40:46.015Z,986.5
2018-05-10T04:41:06.166Z,986.5
2018-05-10T04:41:26.342Z,986.6
2018-05-10T04:41:46.537Z,986.6
2018-05-10T04:44:10.244Z,986.5
2018-05-10T04:44:30.427Z,986.5
2018-05-10T04:44:50.598Z,986.5
2018-05-10T04:46:07.995Z,986.6
2018-05-10T04:46:28.159Z,986.6
2018-05-10T04:46:48.341Z,986.6
2018-05-10T04:48:30.357Z,986.6
2018-05-10T04:48:50.538Z,986.6
2018-05-10T04:49:10.694Z,986.6
2018-05-10T04:51:11.552Z,986.6
2018-05-10T04:51:31.715Z,986.6
2018-05-10T04:51:51.859Z,986.6
2018-05-10T04:53:39.974Z,986.6
2018-05-10T04:54:00.162Z,986.6
2018-05-10T04:54:20.318Z,986.6
2018-05-10T04:57:08.823Z,986.6
2018-05-10T04:57:29.013Z,986.6
2018-05-10T04:57:49.183Z,986.6
2018-05-10T04:58:09.357Z,986.6
2018-05-10T04:58:29.514Z,986.6
2018-05-10T04:58:49.694Z,986.7
2018-05-10T04:59:09.887Z,986.6
2018-05-10T04:59:30.030Z,986.7
2018-05-10T04:59:50.201Z,986.6
2018-05-10T05:01:33.461Z,986.6
2018-05-10T05:01:53.632Z,986.6
2018-05-10T05:02:13.791Z,986.6
2018-05-10T05:02:33.954Z,986.6
2018-05-10T05:02:54.138Z,986.6
2018-05-10T05:03:49.724Z,986.6
2018-05-10T05:04:09.890Z,986.6
2018-05-10T05:04:30.067Z,986.6
2018-05-10T05:04:50.262Z,986.6
2018-05-10T05:05:10.424Z,986.7
2018-05-10T05:05:30.579Z,986.6
2018-05-10T05:05:50.780Z,986.6
2018-05-10T05:06:11.025Z,986.6
2018-05-10T05:06:31.230Z,986.6
2018-05-10T05:06:51.391Z,986.6
2018-05-10T05:07:11.564Z,986.6
2018-05-10T05:07:31.713Z,986.6
2018-05-10T05:07:51.882Z,986.6
2018-05-10T05:08:12.101Z,986.6
2018-05-10T05:08:32.265Z,986.6
2018-05-10T05:08:52.497Z,986.6
2018-05-10T05:10:07.672Z,986.6
2018-05-10T05:10:27.849Z,986.6
2018-05-10T05:10:48.010Z,986.6
2018-05-10T05:11:08.198Z,986.6
2018-05-10T05:11:28.376Z,986.6
2018-05-10T05:11:48.554Z,986.6
2018-05-10T05:12:08.711Z,986.6
2018-05-10T05:12:28.872Z,986.6
2018-05-10T05:12:49.033Z,986.6
2018-05-10T05:13:09.219Z,986.6
2018-05-10T05:13:29.427Z,986.6
2018-05-10T05:13:49.599Z,986.6
2018-05-10T05:14:09.765Z,986.6
2018-05-10T05:14:29.951Z,986.6
2018-05-10T05:14:50.108Z,986.6
2018-05-10T05:15:10.254Z,986.6
2018-05-10T05:15:30.440Z,986.6
2018-05-10T05:15:50.637Z,986.6
2018-05-10T05:16:10.793Z,986.6
2018-05-10T05:16:30.979Z,986.6
2018-05-10T05:16:51.151Z,986.6
2018-05-10T05:17:11.325Z,986.6
2018-05-10T05:17:31.501Z,986.6
2018-05-10T05:17:51.656Z,986.6
2018-05-10T05:18:11.832Z,986.6
2018-05-10T05:18:32.018Z,986.6
2018-05-10T05:18:52.205Z,986.6
2018-05-10T05:19:12.378Z,986.6
2018-05-10T05:19:32.534Z,986.6
2018-05-10T05:19:52.721Z,986.6
2018-05-10T05:20:12.884Z,986.6
2018-05-10T05:20:33.028Z,986.6
2018-05-10T05:20:53.245Z,986.6
2018-05-10T05:21:13.421Z,986.6
2018-05-10T05:21:33.644Z,986.7
2018-05-10T05:21:53.753Z,986.6
2018-05-10T05:22:13.915Z,986.7
2018-05-10T05:22:34.088Z,986.6
2018-05-10T05:22:54.283Z,986.6
2018-05-10T05:23:14.454Z,986.7
2018-05-10T05:23:34.628Z,986.7
2018-05-10T05:23:54.796Z,986.7
2018-05-10T05:24:14.976Z,986.7
2018-05-10T05:24:35.134Z,986.7
2018-05-10T05:24:55.291Z,986.7
2018-05-10T05:25:15.466Z,986.7
2018-05-10T05:25:35.637Z,986.7
2018-05-10T05:25:55.810Z,986.7
2018-05-10T05:26:15.976Z,986.7
2018-05-10T05:26:36.145Z,986.7
2018-05-10T05:26:56.411Z,986.7
2018-05-10T05:27:16.530Z,986.7
2018-05-10T05:27:36.717Z,986.7
2018-05-10T05:27:56.896Z,986.7
2018-05-10T05:28:17.017Z,986.7
2018-05-10T05:28:37.186Z,986.7
2018-05-10T05:28:57.333Z,986.7
2018-05-10T05:29:17.514Z,986.7
2018-05-10T05:29:37.684Z,986.7
2018-05-10T05:29:57.871Z,986.7
2018-05-10T05:30:18.049Z,986.6
2018-05-10T05:30:38.219Z,986.7
2018-05-10T05:30:58.416Z,986.7
2018-05-10T05:31:18.589Z,986.7
2018-05-10T05:31:38.756Z,986.7
2018-05-10T05:31:58.940Z,986.7
2018-05-10T05:32:19.135Z,986.7
2018-05-10T05:32:39.482Z,986.7
2018-05-10T05:32:59.683Z,986.6
2018-05-10T05:33:19.889Z,986.7
2018-05-10T05:33:40.052Z,986.7
2018-05-10T05:34:00.240Z,986.7
2018-05-10T05:34:20.373Z,986.7
2018-05-10T05:34:40.548Z,986.7
2018-05-10T05:35:00.734Z,986.7
2018-05-10T05:35:20.896Z,986.7
2018-05-10T05:35:41.203Z,986.7
2018-05-10T05:36:01.273Z,986.7
2018-05-10T05:36:21.463Z,986.7
2018-05-10T05:36:41.793Z,986.7
2018-05-10T05:37:01.845Z,986.7
2018-05-10T05:37:22.027Z,986.7
2018-05-10T05:37:42.225Z,986.7
2018-05-10T05:38:02.417Z,986.7
2018-05-10T05:38:22.595Z,986.7
2018-05-10T05:38:42.754Z,986.7
2018-05-10T05:39:02.935Z,986.7
2018-05-10T05:39:23.096Z,986.7
2018-05-10T05:39:43.259Z,986.7
2018-05-10T05:40:03.453Z,986.7
2018-05-10T05:40:23.652Z,986.7
2018-05-10T05:40:43.832Z,986.7
2018-05-10T05:41:04.098Z,986.7
2018-05-10T05:41:24.180Z,986.7
2018-05-10T05:41:44.369Z,986.7
2018-05-10T05:42:04.517Z,986.7
2018-05-10T05:42:24.700Z,986.7
2018-05-10T05:42:44.868Z,986.7
2018-05-10T05:43:05.052Z,986.7
2018-05-10T05:43:25.501Z,986.7
2018-05-10T05:43:45.552Z,986.7
2018-05-10T05:44:05.717Z,986.7
2018-05-10T05:44:25.886Z,986.7
2018-05-10T05:44:46.043Z,986.7
2018-05-10T05:45:06.213Z,986.7
2018-05-10T05:45:26.393Z,986.7
2018-05-10T05:45:46.565Z,986.7
2018-05-10T05:46:06.758Z,986.7
2018-05-10T05:46:26.941Z,986.7
2018-05-10T05:46:47.138Z,986.7
2018-05-10T05:47:07.312Z,986.7
2018-05-10T05:47:27.523Z,986.7
2018-05-10T05:47:47.697Z,986.7
2018-05-10T05:48:07.880Z,986.7
2018-05-10T05:48:28.100Z,986.7
2018-05-10T05:48:48.297Z,986.7
2018-05-10T05:49:08.509Z,986.7
2018-05-10T05:49:28.689Z,986.7
2018-05-10T05:49:48.930Z,986.7
2018-05-10T05:50:09.081Z,986.7
2018-05-10T05:50:29.386Z,986.7
2018-05-10T05:50:49.592Z,986.7
2018-05-10T05:51:09.835Z,986.7
2018-05-10T05:51:30.074Z,986.7
2018-05-10T05:51:50.263Z,986.7
2018-05-10T05:52:10.407Z,986.8
2018-05-10T05:52:30.591Z,986.7
2018-05-10T05:52:50.809Z,986.8
2018-05-10T05:53:10.985Z,986.8
2018-05-10T05:53:31.160Z,986.7
2018-05-10T05:53:51.330Z,986.8
2018-05-10T05:54:11.520Z,986.8
2018-05-10T05:54:31.675Z,986.7
2018-05-10T05:54:51.855Z,986.8
2018-05-10T05:55:12.059Z,986.7
2018-05-10T05:55:32.242Z,986.8
2018-05-10T05:55:52.440Z,986.8
2018-05-10T05:56:12.612Z,986.7
2018-05-10T05:56:32.778Z,986.8
2018-05-10T05:56:52.961Z,986.8
2018-05-10T05:57:13.173Z,986.8
2018-05-10T05:57:33.351Z,986.8
2018-05-10T05:57:53.520Z,986.8
2018-05-10T05:58:13.706Z,986.8
2018-05-10T05:58:33.896Z,986.8
2018-05-10T05:58:54.153Z,986.8
2018-05-10T05:59:14.298Z,986.8
2018-05-10T05:59:34.463Z,986.7
2018-05-10T05:59:54.647Z,986.8
2018-05-10T06:00:14.822Z,986.8
2018-05-10T06:00:34.974Z,986.8
2018-05-10T06:00:55.218Z,986.8
2018-05-10T06:01:15.394Z,986.8
2018-05-10T06:01:35.569Z,986.8
2018-05-10T06:01:55.741Z,986.8
2018-05-10T06:02:15.938Z,986.8
2018-05-10T06:02:36.127Z,986.8
2018-05-10T06:02:56.300Z,986.8
2018-05-10T06:03:16.490Z,986.8
2018-05-10T06:03:36.673Z,986.8
2018-05-10T06:03:56.858Z,986.8
2018-05-10T06:04:17.058Z,986.8
2018-05-10T06:04:37.219Z,986.8
2018-05-10T06:04:57.400Z,986.8
2018-05-10T06:05:17.594Z,986.8
2018-05-10T06:05:37.781Z,986.8
2018-05-10T06:05:57.954Z,986.8
2018-05-10T06:06:18.127Z,986.8
2018-05-10T06:06:38.332Z,986.8
2018-05-10T06:06:58.498Z,986.8
2018-05-10T06:07:18.691Z,986.8
2018-05-10T06:07:38.901Z,986.8
2018-05-10T06:07:59.069Z,986.8
2018-05-10T06:08:19.251Z,986.8
2018-05-10T06:08:39.457Z,986.8
2018-05-10T06:08:59.630Z,986.8
2018-05-10T06:09:19.848Z,986.8
2018-05-10T06:09:40.057Z,986.8
2018-05-10T06:10:00.253Z,986.8
2018-05-10T06:10:20.426Z,986.8
2018-05-10T06:10:40.611Z,986.8
2018-05-10T06:11:00.805Z,986.8
2018-05-10T06:11:20.971Z,986.8
2018-05-10T06:11:41.158Z,986.8
2018-05-10T06:12:03.011Z,986.8
2018-05-10T06:12:23.683Z,986.8
2018-05-10T06:12:44.149Z,986.8
2018-05-10T06:13:04.367Z,986.9
2018-05-10T06:13:24.567Z,986.8
2018-05-10T06:13:44.740Z,986.9
2018-05-10T06:14:04.903Z,986.9
2018-05-10T06:14:25.077Z,986.9
2018-05-10T06:14:45.265Z,986.9
2018-05-10T06:15:05.432Z,986.9
2018-05-10T06:15:25.633Z,986.8
2018-05-10T06:15:45.889Z,986.9
2018-05-10T06:16:06.066Z,986.9
2018-05-10T06:16:26.183Z,986.9
2018-05-10T06:16:46.335Z,986.9
2018-05-10T06:17:06.507Z,986.9
2018-05-10T06:17:26.691Z,986.9
2018-05-10T06:17:46.867Z,986.9
2018-05-10T06:18:07.033Z,986.9
2018-05-10T06:18:27.205Z,986.9
2018-05-10T06:18:47.400Z,986.9
2018-05-10T06:19:07.643Z,986.9
2018-05-10T06:19:27.844Z,986.9
2018-05-10T06:19:48.037Z,986.9
2018-05-10T06:20:08.215Z,986.9
2018-05-10T06:20:28.428Z,986.9
2018-05-10T06:20:48.596Z,986.9
2018-05-10T06:21:08.773Z,986.9
2018-05-10T06:21:28.940Z,986.9
2018-05-10T06:21:49.158Z,986.9
2018-05-10T06:22:09.327Z,986.9
2018-05-10T06:22:29.525Z,986.9
2018-05-10T06:22:49.769Z,986.9
2018-05-10T06:23:09.944Z,986.9
2018-05-10T06:23:30.111Z,986.9
2018-05-10T06:23:50.292Z,986.9
2018-05-10T06:24:10.470Z,986.9
2018-05-10T06:24:30.645Z,986.9
2018-05-10T06:24:50.950Z,986.9
2018-05-10T06:25:11.320Z,986.9
2018-05-10T06:25:31.308Z,986.9
2018-05-10T06:25:51.458Z,986.9
2018-05-10T06:26:11.635Z,986.9
2018-05-10T06:26:31.790Z,986.9
2018-05-10T06:26:51.972Z,986.9
2018-05-10T06:27:12.138Z,986.9
2018-05-10T06:27:32.308Z,986.9
2018-05-10T06:27:52.477Z,986.9
2018-05-10T06:28:12.657Z,986.9
2018-05-10T06:28:32.832Z,986.9
2018-05-10T06:28:53.003Z,986.9
2018-05-10T06:29:13.170Z,986.9
2018-05-10T06:29:33.161Z,986.9
2018-05-10T06:29:53.356Z,986.9
2018-05-10T06:30:13.542Z,987
2018-05-10T06:30:33.721Z,987
2018-05-10T06:30:53.872Z,986.9
2018-05-10T06:31:14.038Z,987
2018-05-10T06:31:34.205Z,987
2018-05-10T06:31:54.387Z,987
2018-05-10T06:32:14.562Z,987
2018-05-10T06:32:34.753Z,987
2018-05-10T06:32:54.913Z,987
2018-05-10T06:33:15.063Z,987
2018-05-10T06:33:35.252Z,987
2018-05-10T06:33:55.593Z,987
2018-05-10T06:34:16.076Z,987
2018-05-10T06:34:37.070Z,987
2018-05-10T06:34:57.274Z,987
2018-05-10T06:35:17.456Z,987
2018-05-10T06:35:37.640Z,987
2018-05-10T06:35:58.127Z,987
2018-05-10T06:36:18.312Z,987
2018-05-10T06:36:58.593Z,987
2018-05-10T06:37:18.780Z,987
2018-05-10T06:37:38.967Z,987
2018-05-10T06:37:59.149Z,987
2018-05-10T06:38:19.332Z,987
2018-05-10T06:38:39.523Z,987
2018-05-10T06:38:59.826Z,987
2018-05-10T06:39:20.082Z,987
2018-05-10T06:39:40.229Z,987
2018-05-10T06:40:00.442Z,987
2018-05-10T06:40:20.640Z,987
2018-05-10T06:40:40.800Z,987
2018-05-10T06:41:00.966Z,987
2018-05-10T06:41:21.162Z,987
2018-05-10T06:41:41.334Z,987
2018-05-10T06:42:01.507Z,987
2018-05-10T06:42:21.667Z,987
2018-05-10T06:42:41.821Z,987
2018-05-10T06:43:02.006Z,987
2018-05-10T06:43:22.192Z,987
2018-05-10T06:43:42.432Z,987
2018-05-10T06:44:02.631Z,987
2018-05-10T06:44:22.830Z,987
2018-05-10T06:44:42.999Z,987
2018-05-10T06:45:03.166Z,987
2018-05-10T06:45:23.338Z,987
2018-05-10T06:45:43.470Z,987
2018-05-10T06:46:03.643Z,987
2018-05-10T06:46:23.827Z,987
2018-05-10T06:46:44.032Z,987
2018-05-10T06:47:04.240Z,987
2018-05-10T06:47:24.480Z,987
2018-05-10T06:47:44.610Z,987
2018-05-10T06:48:04.783Z,987
2018-05-10T06:48:24.981Z,987
2018-05-10T06:48:45.841Z,987
2018-05-10T06:49:06.039Z,987
2018-05-10T06:49:26.226Z,987
2018-05-10T06:49:46.472Z,987
2018-05-10T06:50:06.786Z,987
2018-05-10T06:50:27.187Z,987
2018-05-10T06:50:47.432Z,987
2018-05-10T06:51:07.772Z,987
2018-05-10T06:51:27.978Z,987
2018-05-10T06:51:48.195Z,987
2018-05-10T06:52:08.405Z,987
2018-05-10T06:52:28.573Z,987.1
2018-05-10T06:52:48.763Z,987
2018-05-10T06:53:08.927Z,987
2018-05-10T06:53:29.677Z,987
2018-05-10T06:53:49.871Z,987.1
2018-05-10T06:54:10.098Z,987.1
2018-05-10T06:54:30.347Z,987
2018-05-10T06:54:50.639Z,987
2018-05-10T06:55:10.877Z,987
2018-05-10T06:55:31.085Z,987.1
2018-05-10T06:55:51.995Z,987
2018-05-10T06:56:12.207Z,987
2018-05-10T06:56:32.407Z,987
2018-05-10T06:56:52.629Z,987
2018-05-10T06:57:12.802Z,987
2018-05-10T06:57:32.964Z,987
2018-05-10T06:57:53.149Z,987
2018-05-10T06:58:13.365Z,987
2018-05-10T06:58:33.536Z,987.1
2018-05-10T06:58:53.726Z,987
2018-05-10T06:59:13.930Z,987
2018-05-10T06:59:34.094Z,987
2018-05-10T06:59:54.260Z,987
2018-05-10T07:00:14.417Z,987
2018-05-10T07:00:34.595Z,987
2018-05-10T07:00:55.548Z,987
2018-05-10T07:01:15.729Z,987
2018-05-10T07:01:36.653Z,987
2018-05-10T07:01:56.860Z,987
2018-05-10T07:02:17.087Z,987
2018-05-10T07:02:37.350Z,987
2018-05-10T07:02:57.537Z,987
2018-05-10T07:03:17.730Z,987
2018-05-10T07:03:37.881Z,987
2018-05-10T07:03:58.047Z,987
2018-05-10T07:04:18.218Z,987
2018-05-10T07:04:38.438Z,987
2018-05-10T07:04:58.642Z,987
2018-05-10T07:05:18.835Z,987
2018-05-10T07:05:39.023Z,987
2018-05-10T07:05:59.197Z,987
2018-05-10T07:06:19.379Z,987
2018-05-10T07:06:39.569Z,987
2018-05-10T07:06:59.870Z,987
2018-05-10T07:07:20.091Z,987.1
2018-05-10T07:07:40.296Z,987
2018-05-10T07:08:00.472Z,987
2018-05-10T07:08:20.669Z,987
2018-05-10T07:08:40.863Z,987
2018-05-10T07:09:01.016Z,987
2018-05-10T07:09:21.302Z,987.1
2018-05-10T07:09:41.490Z,987
2018-05-10T07:10:01.789Z,987
2018-05-10T07:10:21.931Z,987
2018-05-10T07:10:42.274Z,987
2018-05-10T07:11:03.157Z,987
2018-05-10T07:11:23.345Z,987
2018-05-10T07:11:43.532Z,987.1
2018-05-10T07:12:04.473Z,987.1
2018-05-10T07:12:24.499Z,987
2018-05-10T07:12:44.739Z,987
2018-05-10T07:13:04.954Z,987.1
2018-05-10T07:13:25.003Z,987.1
2018-05-10T07:13:45.194Z,987.1
2018-05-10T07:14:05.434Z,987.1
2018-05-10T07:14:25.461Z,987.1
2018-05-10T07:14:45.696Z,987.1
2018-05-10T07:15:05.857Z,987.1
2018-05-10T07:15:26.071Z,987.1
2018-05-10T07:15:46.285Z,987.1
2018-05-10T07:16:06.541Z,987.1
2018-05-10T07:16:26.731Z,987.1
2018-05-10T07:16:46.911Z,987.1
2018-05-10T07:17:07.093Z,987.1
2018-05-10T07:17:27.333Z,987.1
2018-05-10T07:17:47.471Z,987.1
2018-05-10T07:18:07.650Z,987.1
2018-05-10T07:18:27.895Z,987.1
2018-05-10T07:18:48.145Z,987.1
2018-05-10T07:19:08.268Z,987.1
2018-05-10T07:19:28.800Z,987.1
2018-05-10T07:19:49.002Z,987.1
2018-05-10T07:20:09.379Z,987.1
2018-05-10T07:20:29.564Z,987.1
2018-05-10T07:20:49.798Z,987.1
2018-05-10T07:21:10.005Z,987
2018-05-10T07:21:30.887Z,987.1
2018-05-10T07:21:51.068Z,987.1
2018-05-10T07:22:11.245Z,987.1
2018-05-10T07:22:31.455Z,987.1
2018-05-10T07:22:51.646Z,987.1
2018-05-10T07:23:11.807Z,987
2018-05-10T07:23:31.975Z,987.1
2018-05-10T07:23:52.153Z,987.1
2018-05-10T07:24:12.145Z,987.1
2018-05-10T07:24:32.334Z,987.1
2018-05-10T07:24:52.553Z,987.1
2018-05-10T07:25:12.898Z,987.1
2018-05-10T07:25:33.004Z,987.1
2018-05-10T07:25:53.260Z,987
2018-05-10T07:26:13.457Z,987.1
2018-05-10T07:26:33.608Z,987
2018-05-10T07:26:53.852Z,987.1
2018-05-10T07:27:13.980Z,987
2018-05-10T07:27:34.204Z,987
2018-05-10T07:27:54.388Z,987
2018-05-10T07:28:14.550Z,987
2018-05-10T07:28:34.744Z,987
2018-05-10T07:28:54.914Z,987
2018-05-10T07:29:15.094Z,987
2018-05-10T07:29:35.249Z,987
2018-05-10T07:29:55.408Z,987
2018-05-10T07:30:15.583Z,987
2018-05-10T07:30:35.794Z,987
2018-05-10T07:30:55.989Z,987.1
2018-05-10T07:31:16.176Z,987
2018-05-10T07:31:36.518Z,987
2018-05-10T07:31:56.744Z,987
2018-05-10T07:32:17.082Z,987
2018-05-10T07:32:37.287Z,987
2018-05-10T07:32:57.574Z,987.1
2018-05-10T07:33:17.766Z,987.1
2018-05-10T07:33:38.161Z,987.1
2018-05-10T07:33:58.375Z,987.1
2018-05-10T07:34:18.654Z,987.1
2018-05-10T07:34:38.841Z,987.1
2018-05-10T07:34:59.104Z,987.1
2018-05-10T07:35:19.326Z,987.1
2018-05-10T07:35:39.532Z,987.1
2018-05-10T07:35:59.724Z,987.1
2018-05-10T07:36:19.886Z,987.1
2018-05-10T07:36:40.050Z,987.1
2018-05-10T07:37:00.438Z,987.1
2018-05-10T07:37:20.741Z,987.1
2018-05-10T07:37:40.977Z,987.1
2018-05-10T07:38:01.232Z,987.1
2018-05-10T07:38:21.233Z,987.1
2018-05-10T07:38:41.483Z,987.1
2018-05-10T07:39:01.700Z,987.1
2018-05-10T07:39:21.911Z,987.1
2018-05-10T07:39:42.111Z,987.1
2018-05-10T07:40:02.308Z,987.1
2018-05-10T07:40:22.564Z,987.1
2018-05-10T07:40:42.767Z,987.1
2018-05-10T07:41:02.940Z,987.1
2018-05-10T07:41:23.181Z,987.1
2018-05-10T07:41:43.332Z,987.1
2018-05-10T07:42:03.570Z,987.1
2018-05-10T07:42:23.740Z,987.1
2018-05-10T07:42:43.739Z,987.1
2018-05-10T07:43:04.018Z,987.1
2018-05-10T07:43:24.341Z,987.1
2018-05-10T07:43:44.558Z,987.1
2018-05-10T07:44:04.768Z,987.2
2018-05-10T07:44:24.993Z,987.2
2018-05-10T07:44:45.280Z,987.1
2018-05-10T07:45:05.491Z,987.2
2018-05-10T07:45:25.693Z,987.2
2018-05-10T07:45:46.029Z,987.2
2018-05-10T07:46:06.214Z,987.2
2018-05-10T07:46:26.497Z,987.2
2018-05-10T07:46:46.697Z,987.2
2018-05-10T07:47:06.886Z,987.2
2018-05-10T07:47:27.122Z,987.2
2018-05-10T07:47:47.397Z,987.2
2018-05-10T07:48:07.543Z,987.2
2018-05-10T07:48:27.700Z,987.2
2018-05-10T07:48:47.952Z,987.2
2018-05-10T07:49:09.167Z,987.2
2018-05-10T07:49:29.510Z,987.2
2018-05-10T07:49:50.009Z,987.2
2018-05-10T07:50:10.277Z,987.2
2018-05-10T07:50:30.738Z,987.2
2018-05-10T07:50:50.953Z,987.2
2018-05-10T07:51:11.188Z,987.2
2018-05-10T07:51:31.433Z,987.2
2018-05-10T07:51:51.870Z,987.2
2018-05-10T07:52:12.426Z,987.3
2018-05-10T07:52:32.688Z,987.3
2018-05-10T07:52:53.004Z,987.2
2018-05-10T07:53:13.424Z,987.2
2018-05-10T07:53:33.544Z,987.3
2018-05-10T07:53:53.762Z,987.2
2018-05-10T07:54:13.979Z,987.2
2018-05-10T07:54:34.219Z,987.3
2018-05-10T07:54:55.204Z,987.3
2018-05-10T07:55:15.418Z,987.3
2018-05-10T07:55:35.438Z,987.3
2018-05-10T07:55:55.594Z,987.3
2018-05-10T07:56:15.866Z,987.3
2018-05-10T07:56:36.965Z,987.3
2018-05-10T07:56:56.944Z,987.3
2018-05-10T07:57:17.154Z,987.3
2018-05-10T07:57:37.374Z,987.3
2018-05-10T07:57:57.611Z,987.3
2018-05-10T07:58:17.908Z,987.3
2018-05-10T07:58:38.103Z,987.3
2018-05-10T07:58:58.389Z,987.3
2018-05-10T07:59:18.708Z,987.3
2018-05-10T07:59:39.799Z,987.2
2018-05-10T08:00:00.198Z,987.3
2018-05-10T08:00:20.536Z,987.3
2018-05-10T08:00:40.858Z,987.3
2018-05-10T08:01:01.128Z,987.3
2018-05-10T08:01:21.546Z,987.3
2018-05-10T08:01:41.762Z,987.3
2018-05-10T08:02:02.021Z,987.3
2018-05-10T08:02:22.426Z,987.3
2018-05-10T08:02:42.810Z,987.3
2018-05-10T08:03:03.216Z,987.3
2018-05-10T08:03:23.636Z,987.3
2018-05-10T08:03:43.919Z,987.3
2018-05-10T08:04:04.045Z,987.3
2018-05-10T08:04:24.301Z,987.3
2018-05-10T08:04:44.620Z,987.3
2018-05-10T08:05:04.904Z,987.3
2018-05-10T08:05:25.196Z,987.3
2018-05-10T08:05:45.532Z,987.4
2018-05-10T08:06:05.753Z,987.3
2018-05-10T08:06:25.748Z,987.3
2018-05-10T08:06:46.035Z,987.3
2018-05-10T08:07:06.463Z,987.3
2018-05-10T08:07:26.820Z,987.3
2018-05-10T08:07:47.131Z,987.3
2018-05-10T08:08:07.353Z,987.3
2018-05-10T08:08:27.610Z,987.3
2018-05-10T08:08:47.943Z,987.3
2018-05-10T08:09:08.297Z,987.3
2018-05-10T08:09:28.594Z,987.3
2018-05-10T08:09:48.936Z,987.3
2018-05-10T08:10:09.353Z,987.3
2018-05-10T08:10:29.521Z,987.3
2018-05-10T08:10:49.764Z,987.3
2018-05-10T08:11:10.079Z,987.3
2018-05-10T08:11:30.374Z,987.4
2018-05-10T08:11:50.678Z,987.3
2018-05-10T08:12:10.838Z,987.3
2018-05-10T08:12:31.053Z,987.3
2018-05-10T08:12:51.250Z,987.3
2018-05-10T08:13:11.491Z,987.4
2018-05-10T08:13:31.865Z,987.3
2018-05-10T08:13:52.213Z,987.4
2018-05-10T08:14:12.451Z,987.3
2018-05-10T08:14:32.755Z,987.4
2018-05-10T08:14:53.038Z,987.4
2018-05-10T08:15:13.372Z,987.3
2018-05-10T08:15:33.793Z,987.3
2018-05-10T08:15:54.115Z,987.3
2018-05-10T08:16:15.037Z,987.3
2018-05-10T08:16:35.276Z,987.3
2018-05-10T08:16:55.656Z,987.3
2018-05-10T08:17:15.920Z,987.4
2018-05-10T08:17:36.048Z,987.3
2018-05-10T08:17:56.247Z,987.4
2018-05-10T08:18:16.460Z,987.4
2018-05-10T08:18:36.705Z,987.4
2018-05-10T08:18:57.021Z,987.4
2018-05-10T08:19:17.358Z,987.4
2018-05-10T08:19:37.823Z,987.3
2018-05-10T08:19:58.169Z,987.4
2018-05-10T08:20:19.235Z,987.4
2018-05-10T08:20:39.598Z,987.4
2018-05-10T08:21:00.068Z,987.4
2018-05-10T08:21:20.430Z,987.4
2018-05-10T08:21:40.807Z,987.4
2018-05-10T08:22:01.165Z,987.4
2018-05-10T08:22:22.251Z,987.4
2018-05-10T08:22:42.735Z,987.4
2018-05-10T08:23:03.172Z,987.4
2018-05-10T08:23:23.512Z,987.4
2018-05-10T08:23:43.910Z,987.4
2018-05-10T08:24:04.235Z,987.4
2018-05-10T08:24:24.638Z,987.4
2018-05-10T08:24:44.890Z,987.4
2018-05-10T08:25:05.190Z,987.5
2018-05-10T08:25:25.483Z,987.4
2018-05-10T08:25:45.750Z,987.5
2018-05-10T08:26:05.907Z,987.5
2018-05-10T08:26:26.205Z,987.4
2018-05-10T08:26:46.523Z,987.4
2018-05-10T08:27:06.736Z,987.4
2018-05-10T08:27:26.921Z,987.5
2018-05-10T08:27:47.113Z,987.5
2018-05-10T08:28:07.438Z,987.5
2018-05-10T08:28:27.757Z,987.4
2018-05-10T08:28:48.089Z,987.5
2018-05-10T08:29:08.296Z,987.5
2018-05-10T08:29:28.704Z,987.4
2018-05-10T08:29:49.092Z,987.4
2018-05-10T08:30:09.204Z,987.5
2018-05-10T08:30:29.616Z,987.5
2018-05-10T08:30:50.262Z,987.5
2018-05-10T08:31:10.871Z,987.5
2018-05-10T08:31:31.225Z,987.5
2018-05-10T08:31:51.591Z,987.5
2018-05-10T08:32:11.959Z,987.5
2018-05-10T08:32:32.296Z,987.4
2018-05-10T08:32:52.692Z,987.5
2018-05-10T08:33:12.958Z,987.5
2018-05-10T08:33:33.256Z,987.5
2018-05-10T08:33:53.644Z,987.5
2018-05-10T08:34:14.089Z,987.5
2018-05-10T08:34:34.368Z,987.4
2018-05-10T08:34:54.583Z,987.5
2018-05-10T08:35:14.812Z,987.4
2018-05-10T08:35:35.093Z,987.5
2018-05-10T08:35:55.429Z,987.4
2018-05-10T08:36:15.703Z,987.4
2018-05-10T08:36:36.048Z,987.5
2018-05-10T08:36:56.292Z,987.4
2018-05-10T08:37:16.514Z,987.4
2018-05-10T08:37:36.810Z,987.4
2018-05-10T08:37:57.235Z,987.4
2018-05-10T08:38:17.421Z,987.4
2018-05-10T08:38:37.646Z,987.5
2018-05-10T08:38:57.835Z,987.5
2018-05-10T08:39:18.028Z,987.4
2018-05-10T08:39:38.219Z,987.4
2018-05-10T08:39:58.394Z,987.4
2018-05-10T08:40:18.685Z,987.4
2018-05-10T08:40:38.916Z,987.4
2018-05-10T08:40:59.074Z,987.4
2018-05-10T08:41:19.267Z,987.4
2018-05-10T08:41:39.491Z,987.4
2018-05-10T08:41:59.678Z,987.4
2018-05-10T08:42:19.863Z,987.4
2018-05-10T08:42:40.107Z,987.5
2018-05-10T08:43:00.305Z,987.5
2018-05-10T08:43:20.645Z,987.5
2018-05-10T08:43:40.888Z,987.5
2018-05-10T08:44:01.145Z,987.5
2018-05-10T08:44:21.431Z,987.5
2018-05-10T08:44:41.648Z,987.5
2018-05-10T08:45:01.900Z,987.5
2018-05-10T08:45:22.302Z,987.5
2018-05-10T08:45:42.580Z,987.5
2018-05-10T08:46:02.742Z,987.5
2018-05-10T08:46:23.028Z,987.5
2018-05-10T08:46:43.260Z,987.5
2018-05-10T08:47:03.608Z,987.5
2018-05-10T08:47:24.013Z,987.5
2018-05-10T08:47:44.362Z,987.5
2018-05-10T08:48:04.561Z,987.5
2018-05-10T08:48:24.798Z,987.5
2018-05-10T08:48:45.002Z,987.5
2018-05-10T08:49:05.053Z,987.6
2018-05-10T08:49:25.337Z,987.6
2018-05-10T08:49:45.708Z,987.6
2018-05-10T08:50:05.969Z,987.5
2018-05-10T08:50:26.327Z,987.6
2018-05-10T08:50:46.567Z,987.6
2018-05-10T08:51:06.852Z,987.6
2018-05-10T08:51:27.151Z,987.6
2018-05-10T08:51:47.477Z,987.6
2018-05-10T08:52:07.627Z,987.6
2018-05-10T08:52:27.915Z,987.6
2018-05-10T08:52:48.548Z,987.6
2018-05-10T08:53:09.378Z,987.6
2018-05-10T08:53:29.598Z,987.6
2018-05-10T08:53:49.856Z,987.6
2018-05-10T08:54:10.107Z,987.6
2018-05-10T08:54:30.452Z,987.5
2018-05-10T08:54:50.703Z,987.6
2018-05-10T08:55:10.982Z,987.6
2018-05-10T08:55:31.381Z,987.6
2018-05-10T08:55:51.569Z,987.5
2018-05-10T08:56:11.839Z,987.6
2018-05-10T08:56:32.049Z,987.6
2018-05-10T08:56:52.385Z,987.5
2018-05-10T08:57:12.753Z,987.5
2018-05-10T08:57:33.310Z,987.5
2018-05-10T08:57:53.654Z,987.5
2018-05-10T08:58:13.880Z,987.5
2018-05-10T08:58:34.260Z,987.5
2018-05-10T08:58:54.643Z,987.5
2018-05-10T08:59:14.931Z,987.6
2018-05-10T08:59:35.468Z,987.6
2018-05-10T08:59:55.835Z,987.6
2018-05-10T09:00:16.069Z,987.5
2018-05-10T09:00:36.359Z,987.5
2018-05-10T09:00:56.321Z,987.5
2018-05-10T09:01:16.582Z,987.5
2018-05-10T09:01:36.866Z,987.5
2018-05-10T09:01:57.193Z,987.5
2018-05-10T09:02:17.649Z,987.5
2018-05-10T09:02:37.963Z,987.5
2018-05-10T09:02:58.398Z,987.5
2018-05-10T09:03:18.931Z,987.5
2018-05-10T09:03:39.314Z,987.5
2018-05-10T09:03:59.810Z,987.5
2018-05-10T09:04:21.258Z,987.5
2018-05-10T09:04:41.742Z,987.5